sensor_id;sensor_type;location;lat;lon;timestamp;temperature;humidity
22108;DHT22;11220;48.812;9.128;2023-08-08T00:02:15;20.60;84.00
22108;DHT22;11220;48.812;9.128;2023-08-08T00:04:41;20.50;84.10
22108;DHT22;11220;48.812;9.128;2023-08-08T00:07:06;20.80;84.20
22108;DHT22;11220;48.812;9.128;2023-08-08T00:09:32;20.50;84.00
22108;DHT22;11220;48.812;9.128;2023-08-08T00:11:58;20.50;83.70
22108;DHT22;11220;48.812;9.128;2023-08-08T00:14:24;20.50;83.80
22108;DHT22;11220;48.812;9.128;2023-08-08T00:16:49;20.50;83.80
22108;DHT22;11220;48.812;9.128;2023-08-08T00:19:15;20.50;83.70
22108;DHT22;11220;48.812;9.128;2023-08-08T00:21:40;20.50;83.80
22108;DHT22;11220;48.812;9.128;2023-08-08T00:24:06;20.50;84.10
22108;DHT22;11220;48.812;9.128;2023-08-08T00:26:31;20.40;84.00
22108;DHT22;11220;48.812;9.128;2023-08-08T00:28:57;20.50;84.10
22108;DHT22;11220;48.812;9.128;2023-08-08T00:31:23;20.50;84.00
22108;DHT22;11220;48.812;9.128;2023-08-08T00:33:48;20.60;84.00
22108;DHT22;11220;48.812;9.128;2023-08-08T00:36:14;20.80;84.10
22108;DHT22;11220;48.812;9.128;2023-08-08T00:38:39;20.50;83.80
22108;DHT22;11220;48.812;9.128;2023-08-08T00:41:05;20.60;84.00
22108;DHT22;11220;48.812;9.128;2023-08-08T00:43:30;20.50;84.10
22108;DHT22;11220;48.812;9.128;2023-08-08T00:45:57;20.40;84.00
22108;DHT22;11220;48.812;9.128;2023-08-08T00:48:22;20.40;84.10
22108;DHT22;11220;48.812;9.128;2023-08-08T00:50:49;20.40;84.10
22108;DHT22;11220;48.812;9.128;2023-08-08T00:53:15;20.40;84.00
22108;DHT22;11220;48.812;9.128;2023-08-08T00:55:42;20.40;84.00
22108;DHT22;11220;48.812;9.128;2023-08-08T00:58:07;20.40;84.20
22108;DHT22;11220;48.812;9.128;2023-08-08T01:00:33;20.40;84.30
22108;DHT22;11220;48.812;9.128;2023-08-08T01:02:58;20.40;84.20
22108;DHT22;11220;48.812;9.128;2023-08-08T01:05:24;20.40;84.10
22108;DHT22;11220;48.812;9.128;2023-08-08T01:07:58;20.40;84.10
22108;DHT22;11220;48.812;9.128;2023-08-08T01:10:39;20.40;84.40
22108;DHT22;11220;48.812;9.128;2023-08-08T01:13:16;20.40;85.60
22108;DHT22;11220;48.812;9.128;2023-08-08T01:15:45;20.40;84.60
22108;DHT22;11220;48.812;9.128;2023-08-08T01:18:11;20.40;84.30
22108;DHT22;11220;48.812;9.128;2023-08-08T01:20:37;20.40;84.30
22108;DHT22;11220;48.812;9.128;2023-08-08T01:25:53;20.40;84.40
22108;DHT22;11220;48.812;9.128;2023-08-08T01:28:23;20.30;84.30
22108;DHT22;11220;48.812;9.128;2023-08-08T01:30:49;20.40;84.10
22108;DHT22;11220;48.812;9.128;2023-08-08T01:33:14;20.40;84.10
22108;DHT22;11220;48.812;9.128;2023-08-08T01:35:44;20.40;84.00
22108;DHT22;11220;48.812;9.128;2023-08-08T01:40:57;20.40;84.20
22108;DHT22;11220;48.812;9.128;2023-08-08T01:43:25;20.40;84.40
22108;DHT22;11220;48.812;9.128;2023-08-08T01:45:51;20.30;84.10
22108;DHT22;11220;48.812;9.128;2023-08-08T01:48:17;20.40;84.10
22108;DHT22;11220;48.812;9.128;2023-08-08T01:50:43;20.40;84.10
22108;DHT22;11220;48.812;9.128;2023-08-08T01:53:08;20.50;84.10
22108;DHT22;11220;48.812;9.128;2023-08-08T01:55:34;20.40;84.30
22108;DHT22;11220;48.812;9.128;2023-08-08T01:58:00;20.30;84.50
22108;DHT22;11220;48.812;9.128;2023-08-08T02:00:25;20.30;84.60
22108;DHT22;11220;48.812;9.128;2023-08-08T02:02:51;20.30;84.30
22108;DHT22;11220;48.812;9.128;2023-08-08T02:05:16;21.20;84.90
22108;DHT22;11220;48.812;9.128;2023-08-08T02:07:42;20.30;84.20
22108;DHT22;11220;48.812;9.128;2023-08-08T02:10:07;20.30;84.60
22108;DHT22;11220;48.812;9.128;2023-08-08T02:12:33;20.30;84.50
22108;DHT22;11220;48.812;9.128;2023-08-08T02:14:59;20.30;84.30
22108;DHT22;11220;48.812;9.128;2023-08-08T02:17:25;20.30;84.10
22108;DHT22;11220;48.812;9.128;2023-08-08T02:19:51;20.60;84.40
22108;DHT22;11220;48.812;9.128;2023-08-08T02:22:17;20.30;84.30
22108;DHT22;11220;48.812;9.128;2023-08-08T02:24:43;20.70;84.70
22108;DHT22;11220;48.812;9.128;2023-08-08T02:27:09;20.30;84.30
22108;DHT22;11220;48.812;9.128;2023-08-08T02:29:34;21.10;84.70
22108;DHT22;11220;48.812;9.128;2023-08-08T02:32:00;20.90;84.40
22108;DHT22;11220;48.812;9.128;2023-08-08T02:34:25;20.30;84.10
22108;DHT22;11220;48.812;9.128;2023-08-08T02:36:51;20.30;84.20
22108;DHT22;11220;48.812;9.128;2023-08-08T02:39:16;20.30;84.60
22108;DHT22;11220;48.812;9.128;2023-08-08T02:41:42;20.30;84.10
22108;DHT22;11220;48.812;9.128;2023-08-08T02:44:11;20.30;84.00
22108;DHT22;11220;48.812;9.128;2023-08-08T02:46:36;21.20;84.60
22108;DHT22;11220;48.812;9.128;2023-08-08T02:49:04;20.30;83.90
22108;DHT22;11220;48.812;9.128;2023-08-08T02:51:29;20.50;84.20
22108;DHT22;11220;48.812;9.128;2023-08-08T02:53:55;20.30;84.10
22108;DHT22;11220;48.812;9.128;2023-08-08T02:56:20;20.30;84.00
22108;DHT22;11220;48.812;9.128;2023-08-08T02:58:46;20.30;84.20
22108;DHT22;11220;48.812;9.128;2023-08-08T03:01:11;20.30;84.00
22108;DHT22;11220;48.812;9.128;2023-08-08T03:03:40;20.10;83.90
22108;DHT22;11220;48.812;9.128;2023-08-08T03:06:06;20.20;84.20
22108;DHT22;11220;48.812;9.128;2023-08-08T03:08:31;20.30;84.00
22108;DHT22;11220;48.812;9.128;2023-08-08T03:10:57;20.80;84.20
22108;DHT22;11220;48.812;9.128;2023-08-08T03:13:22;20.30;83.80
22108;DHT22;11220;48.812;9.128;2023-08-08T03:15:48;20.20;83.70
22108;DHT22;11220;48.812;9.128;2023-08-08T03:18:14;20.40;84.00
22108;DHT22;11220;48.812;9.128;2023-08-08T03:20:39;20.60;84.40
22108;DHT22;11220;48.812;9.128;2023-08-08T03:23:05;20.20;84.00
22108;DHT22;11220;48.812;9.128;2023-08-08T03:25:30;20.20;84.10
22108;DHT22;11220;48.812;9.128;2023-08-08T03:27:56;20.20;84.00
22108;DHT22;11220;48.812;9.128;2023-08-08T03:30:22;20.50;84.10
22108;DHT22;11220;48.812;9.128;2023-08-08T03:32:47;20.20;84.10
22108;DHT22;11220;48.812;9.128;2023-08-08T03:35:13;20.20;84.20
22108;DHT22;11220;48.812;9.128;2023-08-08T03:37:40;20.20;84.30
22108;DHT22;11220;48.812;9.128;2023-08-08T03:40:06;20.40;84.70
22108;DHT22;11220;48.812;9.128;2023-08-08T03:42:33;20.20;84.40
22108;DHT22;11220;48.812;9.128;2023-08-08T03:44:58;20.20;84.30
22108;DHT22;11220;48.812;9.128;2023-08-08T03:47:27;20.20;84.50
22108;DHT22;11220;48.812;9.128;2023-08-08T03:49:55;20.20;84.30
22108;DHT22;11220;48.812;9.128;2023-08-08T03:52:23;20.20;84.60
22108;DHT22;11220;48.812;9.128;2023-08-08T03:54:48;20.20;84.80
22108;DHT22;11220;48.812;9.128;2023-08-08T03:57:14;20.20;84.50
22108;DHT22;11220;48.812;9.128;2023-08-08T03:59:40;20.20;84.40
22108;DHT22;11220;48.812;9.128;2023-08-08T04:02:05;20.10;84.40
22108;DHT22;11220;48.812;9.128;2023-08-08T04:04:31;20.20;84.50
22108;DHT22;11220;48.812;9.128;2023-08-08T04:06:57;20.20;84.90
22108;DHT22;11220;48.812;9.128;2023-08-08T04:09:22;20.20;84.80
22108;DHT22;11220;48.812;9.128;2023-08-08T04:11:48;20.30;84.60
22108;DHT22;11220;48.812;9.128;2023-08-08T04:14:13;20.20;84.80
22108;DHT22;11220;48.812;9.128;2023-08-08T04:16:39;20.20;85.90
22108;DHT22;11220;48.812;9.128;2023-08-08T04:19:05;20.20;85.00
22108;DHT22;11220;48.812;9.128;2023-08-08T04:21:30;20.40;85.00
22108;DHT22;11220;48.812;9.128;2023-08-08T04:23:58;20.20;84.80
22108;DHT22;11220;48.812;9.128;2023-08-08T04:26:23;20.30;85.10
22108;DHT22;11220;48.812;9.128;2023-08-08T04:28:49;20.20;85.00
22108;DHT22;11220;48.812;9.128;2023-08-08T04:31:15;20.20;84.80
22108;DHT22;11220;48.812;9.128;2023-08-08T04:33:40;20.40;84.90
22108;DHT22;11220;48.812;9.128;2023-08-08T04:36:06;20.20;84.90
22108;DHT22;11220;48.812;9.128;2023-08-08T04:38:31;20.20;85.10
22108;DHT22;11220;48.812;9.128;2023-08-08T04:40:57;20.20;84.70
22108;DHT22;11220;48.812;9.128;2023-08-08T04:43:22;20.20;84.50
22108;DHT22;11220;48.812;9.128;2023-08-08T04:45:48;20.30;84.60
22108;DHT22;11220;48.812;9.128;2023-08-08T04:48:13;20.20;84.60
22108;DHT22;11220;48.812;9.128;2023-08-08T04:50:39;20.20;84.70
22108;DHT22;11220;48.812;9.128;2023-08-08T04:53:06;20.20;84.60
22108;DHT22;11220;48.812;9.128;2023-08-08T04:55:31;20.20;84.70
22108;DHT22;11220;48.812;9.128;2023-08-08T04:57:57;20.20;84.80
22108;DHT22;11220;48.812;9.128;2023-08-08T05:00:22;20.20;84.80
22108;DHT22;11220;48.812;9.128;2023-08-08T05:02:48;20.20;84.80
22108;DHT22;11220;48.812;9.128;2023-08-08T05:05:13;20.00;84.70
22108;DHT22;11220;48.812;9.128;2023-08-08T05:07:39;20.20;84.80
22108;DHT22;11220;48.812;9.128;2023-08-08T05:10:05;20.10;84.60
22108;DHT22;11220;48.812;9.128;2023-08-08T05:12:30;20.20;84.80
22108;DHT22;11220;48.812;9.128;2023-08-08T05:14:56;20.10;84.70
22108;DHT22;11220;48.812;9.128;2023-08-08T05:17:22;20.30;84.80
22108;DHT22;11220;48.812;9.128;2023-08-08T05:19:47;20.00;85.60
22108;DHT22;11220;48.812;9.128;2023-08-08T05:22:13;20.10;84.70
22108;DHT22;11220;48.812;9.128;2023-08-08T05:24:38;20.20;84.90
22108;DHT22;11220;48.812;9.128;2023-08-08T05:27:04;20.10;84.70
22108;DHT22;11220;48.812;9.128;2023-08-08T05:29:30;20.20;84.80
22108;DHT22;11220;48.812;9.128;2023-08-08T05:31:55;20.20;85.00
22108;DHT22;11220;48.812;9.128;2023-08-08T05:34:23;20.20;85.10
22108;DHT22;11220;48.812;9.128;2023-08-08T05:36:49;20.20;85.20
22108;DHT22;11220;48.812;9.128;2023-08-08T05:39:14;20.10;84.80
22108;DHT22;11220;48.812;9.128;2023-08-08T05:41:40;20.20;84.80
22108;DHT22;11220;48.812;9.128;2023-08-08T05:44:05;20.00;85.00
22108;DHT22;11220;48.812;9.128;2023-08-08T05:46:31;20.20;85.30
22108;DHT22;11220;48.812;9.128;2023-08-08T05:48:57;21.00;86.00
22108;DHT22;11220;48.812;9.128;2023-08-08T05:51:22;20.30;85.70
22108;DHT22;11220;48.812;9.128;2023-08-08T05:53:48;20.20;85.30
22108;DHT22;11220;48.812;9.128;2023-08-08T05:56:13;20.20;85.10
22108;DHT22;11220;48.812;9.128;2023-08-08T05:58:39;20.20;85.10
22108;DHT22;11220;48.812;9.128;2023-08-08T06:01:04;20.20;85.10
22108;DHT22;11220;48.812;9.128;2023-08-08T06:03:34;20.20;84.90
22108;DHT22;11220;48.812;9.128;2023-08-08T06:06:00;20.30;85.30
22108;DHT22;11220;48.812;9.128;2023-08-08T06:08:25;20.30;85.30
22108;DHT22;11220;48.812;9.128;2023-08-08T06:10:51;20.40;85.30
22108;DHT22;11220;48.812;9.128;2023-08-08T06:13:16;20.20;85.30
22108;DHT22;11220;48.812;9.128;2023-08-08T06:15:42;20.20;85.30
22108;DHT22;11220;48.812;9.128;2023-08-08T06:18:08;20.20;85.30
22108;DHT22;11220;48.812;9.128;2023-08-08T06:20:33;20.30;85.60
22108;DHT22;11220;48.812;9.128;2023-08-08T06:22:59;20.40;85.50
22108;DHT22;11220;48.812;9.128;2023-08-08T06:25:24;20.40;85.40
22108;DHT22;11220;48.812;9.128;2023-08-08T06:27:50;20.20;85.70
22108;DHT22;11220;48.812;9.128;2023-08-08T06:30:15;20.30;85.60
22108;DHT22;11220;48.812;9.128;2023-08-08T06:32:41;20.30;85.90
22108;DHT22;11220;48.812;9.128;2023-08-08T06:35:07;20.50;85.90
22108;DHT22;11220;48.812;9.128;2023-08-08T06:37:33;20.30;85.80
22108;DHT22;11220;48.812;9.128;2023-08-08T06:39:58;20.30;85.70
22108;DHT22;11220;48.812;9.128;2023-08-08T06:42:24;20.30;85.80
22108;DHT22;11220;48.812;9.128;2023-08-08T06:44:49;20.40;86.10
22108;DHT22;11220;48.812;9.128;2023-08-08T06:47:15;20.70;85.90
22108;DHT22;11220;48.812;9.128;2023-08-08T06:49:40;20.30;85.80
22108;DHT22;11220;48.812;9.128;2023-08-08T06:52:06;20.30;85.80
22108;DHT22;11220;48.812;9.128;2023-08-08T06:54:32;20.30;86.00
22108;DHT22;11220;48.812;9.128;2023-08-08T06:56:58;20.70;86.20
22108;DHT22;11220;48.812;9.128;2023-08-08T06:59:23;20.30;86.00
22108;DHT22;11220;48.812;9.128;2023-08-08T07:01:50;20.40;86.00
22108;DHT22;11220;48.812;9.128;2023-08-08T07:04:16;20.50;86.00
22108;DHT22;11220;48.812;9.128;2023-08-08T07:06:44;20.40;86.10
22108;DHT22;11220;48.812;9.128;2023-08-08T07:09:10;20.40;86.50
22108;DHT22;11220;48.812;9.128;2023-08-08T07:11:36;20.40;86.70
22108;DHT22;11220;48.812;9.128;2023-08-08T07:14:02;20.40;86.90
22108;DHT22;11220;48.812;9.128;2023-08-08T07:16:28;20.50;87.00
22108;DHT22;11220;48.812;9.128;2023-08-08T07:18:53;20.50;87.10
22108;DHT22;11220;48.812;9.128;2023-08-08T07:21:19;20.40;86.80
22108;DHT22;11220;48.812;9.128;2023-08-08T07:23:45;20.50;86.90
22108;DHT22;11220;48.812;9.128;2023-08-08T07:26:11;20.50;87.00
22108;DHT22;11220;48.812;9.128;2023-08-08T07:28:36;20.50;86.90
22108;DHT22;11220;48.812;9.128;2023-08-08T07:31:02;20.50;86.70
22108;DHT22;11220;48.812;9.128;2023-08-08T07:33:28;20.40;86.30
22108;DHT22;11220;48.812;9.128;2023-08-08T07:35:53;20.50;86.40
22108;DHT22;11220;48.812;9.128;2023-08-08T07:38:19;20.80;86.40
22108;DHT22;11220;48.812;9.128;2023-08-08T07:40:44;21.10;86.50
22108;DHT22;11220;48.812;9.128;2023-08-08T07:43:11;20.50;86.00
22108;DHT22;11220;48.812;9.128;2023-08-08T07:45:37;20.50;86.00
22108;DHT22;11220;48.812;9.128;2023-08-08T07:48:03;20.50;86.00
22108;DHT22;11220;48.812;9.128;2023-08-08T07:50:29;20.50;86.20
22108;DHT22;11220;48.812;9.128;2023-08-08T07:52:55;20.60;86.20
22108;DHT22;11220;48.812;9.128;2023-08-08T07:55:20;20.50;87.00
22108;DHT22;11220;48.812;9.128;2023-08-08T07:57:46;20.50;86.10
22108;DHT22;11220;48.812;9.128;2023-08-08T08:00:12;20.60;86.20
22108;DHT22;11220;48.812;9.128;2023-08-08T08:02:39;20.60;86.10
22108;DHT22;11220;48.812;9.128;2023-08-08T08:05:05;20.60;86.20
22108;DHT22;11220;48.812;9.128;2023-08-08T08:07:36;20.60;86.10
22108;DHT22;11220;48.812;9.128;2023-08-08T08:10:09;20.60;86.00
22108;DHT22;11220;48.812;9.128;2023-08-08T08:12:35;20.60;86.10
22108;DHT22;11220;48.812;9.128;2023-08-08T08:15:01;20.60;85.90
22108;DHT22;11220;48.812;9.128;2023-08-08T08:17:27;20.60;85.70
22108;DHT22;11220;48.812;9.128;2023-08-08T08:19:53;20.70;85.60
22108;DHT22;11220;48.812;9.128;2023-08-08T08:22:19;20.70;85.80
22108;DHT22;11220;48.812;9.128;2023-08-08T08:24:44;20.60;85.60
22108;DHT22;11220;48.812;9.128;2023-08-08T08:27:11;20.70;85.90
22108;DHT22;11220;48.812;9.128;2023-08-08T08:29:37;20.70;86.30
22108;DHT22;11220;48.812;9.128;2023-08-08T08:32:03;20.80;86.20
22108;DHT22;11220;48.812;9.128;2023-08-08T08:34:32;20.70;86.20
22108;DHT22;11220;48.812;9.128;2023-08-08T08:36:57;20.70;86.30
22108;DHT22;11220;48.812;9.128;2023-08-08T08:39:23;20.90;86.90
22108;DHT22;11220;48.812;9.128;2023-08-08T08:41:49;20.80;86.50
22108;DHT22;11220;48.812;9.128;2023-08-08T08:44:21;20.70;86.50
22108;DHT22;11220;48.812;9.128;2023-08-08T08:46:48;20.80;86.50
22108;DHT22;11220;48.812;9.128;2023-08-08T08:49:17;20.80;85.90
22108;DHT22;11220;48.812;9.128;2023-08-08T08:51:44;20.80;86.10
22108;DHT22;11220;48.812;9.128;2023-08-08T08:54:10;20.80;86.50
22108;DHT22;11220;48.812;9.128;2023-08-08T08:56:36;20.90;86.50
22108;DHT22;11220;48.812;9.128;2023-08-08T08:59:04;20.80;86.40
22108;DHT22;11220;48.812;9.128;2023-08-08T09:01:30;20.80;86.30
22108;DHT22;11220;48.812;9.128;2023-08-08T09:03:57;20.80;86.50
22108;DHT22;11220;48.812;9.128;2023-08-08T09:06:23;20.80;86.50
22108;DHT22;11220;48.812;9.128;2023-08-08T09:08:49;20.80;86.60
22108;DHT22;11220;48.812;9.128;2023-08-08T09:11:15;20.90;86.60
22108;DHT22;11220;48.812;9.128;2023-08-08T09:13:40;20.90;86.20
22108;DHT22;11220;48.812;9.128;2023-08-08T09:16:07;20.90;85.90
22108;DHT22;11220;48.812;9.128;2023-08-08T09:18:37;20.90;85.80
22108;DHT22;11220;48.812;9.128;2023-08-08T09:21:04;21.10;86.00
22108;DHT22;11220;48.812;9.128;2023-08-08T09:23:30;20.90;85.80
22108;DHT22;11220;48.812;9.128;2023-08-08T09:25:56;21.10;86.20
22108;DHT22;11220;48.812;9.128;2023-08-08T09:28:21;20.90;85.80
22108;DHT22;11220;48.812;9.128;2023-08-08T09:30:47;21.00;85.80
22108;DHT22;11220;48.812;9.128;2023-08-08T09:33:13;21.00;86.00
22108;DHT22;11220;48.812;9.128;2023-08-08T09:35:39;21.00;86.00
22108;DHT22;11220;48.812;9.128;2023-08-08T09:38:05;21.20;86.00
22108;DHT22;11220;48.812;9.128;2023-08-08T09:40:31;21.00;85.80
22108;DHT22;11220;48.812;9.128;2023-08-08T09:42:57;20.90;85.80
22108;DHT22;11220;48.812;9.128;2023-08-08T09:45:24;21.20;86.00
22108;DHT22;11220;48.812;9.128;2023-08-08T09:47:53;21.00;85.80
22108;DHT22;11220;48.812;9.128;2023-08-08T09:50:19;21.00;85.70
22108;DHT22;11220;48.812;9.128;2023-08-08T09:52:46;21.00;85.70
22108;DHT22;11220;48.812;9.128;2023-08-08T09:55:14;21.00;85.60
22108;DHT22;11220;48.812;9.128;2023-08-08T09:57:40;21.00;86.00
22108;DHT22;11220;48.812;9.128;2023-08-08T10:00:07;21.10;86.80
22108;DHT22;11220;48.812;9.128;2023-08-08T10:02:42;21.10;86.90
22108;DHT22;11220;48.812;9.128;2023-08-08T10:05:08;21.20;86.90
22108;DHT22;11220;48.812;9.128;2023-08-08T10:07:35;21.20;86.70
22108;DHT22;11220;48.812;9.128;2023-08-08T10:10:00;21.20;86.80
22108;DHT22;11220;48.812;9.128;2023-08-08T10:12:26;21.40;87.00
22108;DHT22;11220;48.812;9.128;2023-08-08T10:14:52;21.30;86.90
22108;DHT22;11220;48.812;9.128;2023-08-08T10:17:18;21.30;86.90
22108;DHT22;11220;48.812;9.128;2023-08-08T10:20:10;21.30;86.80
22108;DHT22;11220;48.812;9.128;2023-08-08T10:22:44;21.30;86.80
22108;DHT22;11220;48.812;9.128;2023-08-08T10:25:19;21.30;86.90
22108;DHT22;11220;48.812;9.128;2023-08-08T10:27:45;21.40;87.10
22108;DHT22;11220;48.812;9.128;2023-08-08T10:30:10;21.30;87.20
22108;DHT22;11220;48.812;9.128;2023-08-08T10:32:40;21.40;87.40
22108;DHT22;11220;48.812;9.128;2023-08-08T10:35:07;21.60;87.50
22108;DHT22;11220;48.812;9.128;2023-08-08T10:37:33;21.40;87.60
22108;DHT22;11220;48.812;9.128;2023-08-08T10:40:00;21.40;87.90
22108;DHT22;11220;48.812;9.128;2023-08-08T10:42:31;22.00;88.30
22108;DHT22;11220;48.812;9.128;2023-08-08T10:44:59;21.90;88.30
22108;DHT22;11220;48.812;9.128;2023-08-08T10:47:31;21.40;88.00
22108;DHT22;11220;48.812;9.128;2023-08-08T10:50:04;21.40;83.50
22108;DHT22;11220;48.812;9.128;2023-08-08T10:52:32;21.30;81.10
22108;DHT22;11220;48.812;9.128;2023-08-08T10:55:01;21.40;81.10
22108;DHT22;11220;48.812;9.128;2023-08-08T10:57:27;21.30;81.60
22108;DHT22;11220;48.812;9.128;2023-08-08T10:59:53;21.30;82.00
22108;DHT22;11220;48.812;9.128;2023-08-08T11:02:20;21.40;82.30
22108;DHT22;11220;48.812;9.128;2023-08-08T11:04:46;21.90;83.30
22108;DHT22;11220;48.812;9.128;2023-08-08T11:07:11;21.40;82.70
22108;DHT22;11220;48.812;9.128;2023-08-08T11:09:39;21.50;82.90
22108;DHT22;11220;48.812;9.128;2023-08-08T11:12:04;21.30;83.20
22108;DHT22;11220;48.812;9.128;2023-08-08T11:14:30;21.40;83.40
22108;DHT22;11220;48.812;9.128;2023-08-08T11:16:56;21.40;83.70
22108;DHT22;11220;48.812;9.128;2023-08-08T11:19:21;21.50;84.10
22108;DHT22;11220;48.812;9.128;2023-08-08T11:21:48;21.50;84.40
22108;DHT22;11220;48.812;9.128;2023-08-08T11:24:14;21.50;84.90
22108;DHT22;11220;48.812;9.128;2023-08-08T11:26:41;21.50;85.20
22108;DHT22;11220;48.812;9.128;2023-08-08T11:29:09;21.40;85.30
22108;DHT22;11220;48.812;9.128;2023-08-08T11:31:35;21.50;85.70
22108;DHT22;11220;48.812;9.128;2023-08-08T11:34:01;21.50;86.20
22108;DHT22;11220;48.812;9.128;2023-08-08T11:36:34;21.60;86.50
22108;DHT22;11220;48.812;9.128;2023-08-08T11:39:04;21.60;86.70
22108;DHT22;11220;48.812;9.128;2023-08-08T11:41:34;21.60;86.60
22108;DHT22;11220;48.812;9.128;2023-08-08T11:44:00;21.60;86.50
22108;DHT22;11220;48.812;9.128;2023-08-08T11:46:25;21.60;86.40
22108;DHT22;11220;48.812;9.128;2023-08-08T11:48:51;21.60;86.90
22108;DHT22;11220;48.812;9.128;2023-08-08T11:51:17;21.70;87.60
22108;DHT22;11220;48.812;9.128;2023-08-08T11:53:53;21.70;87.60
22108;DHT22;11220;48.812;9.128;2023-08-08T11:56:21;21.70;87.40
22108;DHT22;11220;48.812;9.128;2023-08-08T11:58:50;21.60;87.10
22108;DHT22;11220;48.812;9.128;2023-08-08T12:01:19;21.70;87.20
22108;DHT22;11220;48.812;9.128;2023-08-08T12:03:46;21.70;87.30
22108;DHT22;11220;48.812;9.128;2023-08-08T12:06:13;21.90;87.50
22108;DHT22;11220;48.812;9.128;2023-08-08T12:08:41;22.10;87.60
22108;DHT22;11220;48.812;9.128;2023-08-08T12:11:09;21.70;88.20
22108;DHT22;11220;48.812;9.128;2023-08-08T12:13:37;21.80;87.60
22108;DHT22;11220;48.812;9.128;2023-08-08T12:16:05;21.80;87.70
22108;DHT22;11220;48.812;9.128;2023-08-08T12:18:32;21.80;87.70
22108;DHT22;11220;48.812;9.128;2023-08-08T12:20:57;21.90;86.60
22108;DHT22;11220;48.812;9.128;2023-08-08T12:23:26;22.00;85.80
22108;DHT22;11220;48.812;9.128;2023-08-08T12:25:52;21.80;86.80
22108;DHT22;11220;48.812;9.128;2023-08-08T12:28:18;21.90;86.10
22108;DHT22;11220;48.812;9.128;2023-08-08T12:30:44;21.80;84.70
22108;DHT22;11220;48.812;9.128;2023-08-08T12:33:10;21.90;83.70
22108;DHT22;11220;48.812;9.128;2023-08-08T12:35:35;22.00;84.10
22108;DHT22;11220;48.812;9.128;2023-08-08T12:38:01;22.00;84.20
22108;DHT22;11220;48.812;9.128;2023-08-08T12:40:28;22.00;84.50
22108;DHT22;11220;48.812;9.128;2023-08-08T12:42:53;22.40;85.10
22108;DHT22;11220;48.812;9.128;2023-08-08T12:45:19;22.10;84.90
22108;DHT22;11220;48.812;9.128;2023-08-08T12:47:44;22.00;84.80
22108;DHT22;11220;48.812;9.128;2023-08-08T12:50:10;22.00;85.10
22108;DHT22;11220;48.812;9.128;2023-08-08T12:52:35;22.10;85.00
22108;DHT22;11220;48.812;9.128;2023-08-08T12:55:01;22.00;84.30
22108;DHT22;11220;48.812;9.128;2023-08-08T12:57:28;22.00;84.40
22108;DHT22;11220;48.812;9.128;2023-08-08T12:59:53;22.10;85.10
22108;DHT22;11220;48.812;9.128;2023-08-08T13:02:19;22.20;85.40
22108;DHT22;11220;48.812;9.128;2023-08-08T13:04:44;22.20;85.50
22108;DHT22;11220;48.812;9.128;2023-08-08T13:07:10;22.20;85.30
22108;DHT22;11220;48.812;9.128;2023-08-08T13:09:35;22.20;85.30
22108;DHT22;11220;48.812;9.128;2023-08-08T13:12:01;22.30;85.30
22108;DHT22;11220;48.812;9.128;2023-08-08T13:14:27;22.40;85.30
22108;DHT22;11220;48.812;9.128;2023-08-08T13:16:52;22.40;84.90
22108;DHT22;11220;48.812;9.128;2023-08-08T13:19:19;22.10;83.90
22108;DHT22;11220;48.812;9.128;2023-08-08T13:21:46;22.20;83.30
22108;DHT22;11220;48.812;9.128;2023-08-08T13:24:12;22.40;83.00
22108;DHT22;11220;48.812;9.128;2023-08-08T13:26:39;22.00;82.70
22108;DHT22;11220;48.812;9.128;2023-08-08T13:29:04;22.20;83.20
22108;DHT22;11220;48.812;9.128;2023-08-08T13:31:30;22.20;83.40
22108;DHT22;11220;48.812;9.128;2023-08-08T13:33:55;22.30;83.30
22108;DHT22;11220;48.812;9.128;2023-08-08T13:36:21;22.30;82.70
22108;DHT22;11220;48.812;9.128;2023-08-08T13:38:46;22.30;82.50
22108;DHT22;11220;48.812;9.128;2023-08-08T13:41:12;22.40;82.60
22108;DHT22;11220;48.812;9.128;2023-08-08T13:43:37;22.40;82.60
22108;DHT22;11220;48.812;9.128;2023-08-08T13:46:03;22.50;82.80
22108;DHT22;11220;48.812;9.128;2023-08-08T13:48:33;23.10;83.10
22108;DHT22;11220;48.812;9.128;2023-08-08T13:50:59;22.60;82.70
22108;DHT22;11220;48.812;9.128;2023-08-08T13:53:25;22.70;82.60
22108;DHT22;11220;48.812;9.128;2023-08-08T13:55:50;22.60;82.40
22108;DHT22;11220;48.812;9.128;2023-08-08T13:58:16;22.70;82.80
22108;DHT22;11220;48.812;9.128;2023-08-08T14:00:41;23.00;83.30
22108;DHT22;11220;48.812;9.128;2023-08-08T14:03:07;22.70;83.50
22108;DHT22;11220;48.812;9.128;2023-08-08T14:05:32;22.70;83.70
22108;DHT22;11220;48.812;9.128;2023-08-08T14:07:58;22.70;83.80
22108;DHT22;11220;48.812;9.128;2023-08-08T14:10:23;22.60;83.60
22108;DHT22;11220;48.812;9.128;2023-08-08T14:12:49;22.70;83.40
22108;DHT22;11220;48.812;9.128;2023-08-08T14:15:15;22.60;83.30
22108;DHT22;11220;48.812;9.128;2023-08-08T14:17:40;22.60;83.10
22108;DHT22;11220;48.812;9.128;2023-08-08T14:20:06;22.60;82.80
22108;DHT22;11220;48.812;9.128;2023-08-08T14:22:34;22.60;82.30
22108;DHT22;11220;48.812;9.128;2023-08-08T14:24:59;22.60;82.20
22108;DHT22;11220;48.812;9.128;2023-08-08T14:27:25;22.70;82.00
22108;DHT22;11220;48.812;9.128;2023-08-08T14:29:50;22.60;81.90
22108;DHT22;11220;48.812;9.128;2023-08-08T14:32:16;22.60;82.00
22108;DHT22;11220;48.812;9.128;2023-08-08T14:34:42;22.60;81.90
22108;DHT22;11220;48.812;9.128;2023-08-08T14:37:07;22.80;81.70
22108;DHT22;11220;48.812;9.128;2023-08-08T14:39:33;22.60;81.50
22108;DHT22;11220;48.812;9.128;2023-08-08T14:41:58;22.70;81.60
22108;DHT22;11220;48.812;9.128;2023-08-08T14:44:25;22.60;81.50
22108;DHT22;11220;48.812;9.128;2023-08-08T14:46:50;22.60;81.40
22108;DHT22;11220;48.812;9.128;2023-08-08T14:49:16;22.90;81.10
22108;DHT22;11220;48.812;9.128;2023-08-08T14:51:42;22.60;80.90
22108;DHT22;11220;48.812;9.128;2023-08-08T14:54:08;22.70;80.60
22108;DHT22;11220;48.812;9.128;2023-08-08T14:56:33;22.50;80.20
22108;DHT22;11220;48.812;9.128;2023-08-08T14:58:59;22.50;79.90
22108;DHT22;11220;48.812;9.128;2023-08-08T15:01:24;22.50;79.70
22108;DHT22;11220;48.812;9.128;2023-08-08T15:03:50;22.50;79.50
22108;DHT22;11220;48.812;9.128;2023-08-08T15:06:16;22.40;79.30
22108;DHT22;11220;48.812;9.128;2023-08-08T15:08:42;22.50;79.20
22108;DHT22;11220;48.812;9.128;2023-08-08T15:11:08;22.40;80.00
22108;DHT22;11220;48.812;9.128;2023-08-08T15:13:33;22.40;79.00
22108;DHT22;11220;48.812;9.128;2023-08-08T15:15:59;22.40;79.00
22108;DHT22;11220;48.812;9.128;2023-08-08T15:18:25;22.50;79.00
22108;DHT22;11220;48.812;9.128;2023-08-08T15:20:50;22.40;78.90
22108;DHT22;11220;48.812;9.128;2023-08-08T15:23:16;22.70;79.00
22108;DHT22;11220;48.812;9.128;2023-08-08T15:25:42;22.60;78.80
22108;DHT22;11220;48.812;9.128;2023-08-08T15:28:08;22.60;78.70
22108;DHT22;11220;48.812;9.128;2023-08-08T15:30:34;22.60;78.60